SBPP/PMG METAR and TAF weather

Enter ICAO airport designator
Station Type Date Time Source
SBPP METAR 2021/05/14 21:00 UTC NOAA

SBPP 142100Z 05005KT 9999 OVC015 17/16 Q1019


Station Type Date Time Source
SBPP Decoded METAR 2021/05/14 21:00 UTC NOAA

Ponta Pora Intl , Brazil (SBPP) 22-33S 055-42W
May 14, 2021 - 05:00 PM EDT / 2021.05.14 2100 UTC
Wind: from the NE (050 degrees) at 6 MPH (5 KT):0
Visibility: greater than 7 mile(s):0
Sky conditions: overcast
Temperature: 62 F (17 C)
Dew Point: 60 F (16 C)
Relative Humidity: 93%
Pressure (altimeter): 30.09 in. Hg (1019 hPa)
ob: SBPP 142100Z 05005KT 9999 OVC015 17/16 Q1019
cycle: 21

Station Type Date Time Source
SBPP TAF 2021/05/14 18:30 UTC NOAA

TAF SBPP 141532Z 1418/1518 01007KT 8000 BKN015 TN14/1508Z TX23/1517Z
BECMG 1420/1422 01004KT SCT015
BECMG 1511/1513 01008KT
RMK PGM

Example: see airport list